Time,TemperatureF,DewpointF,PressureIn,WindDirection,WindDirectionDegrees,WindSpeedMPH,WindSpeedGustMPH,Humidity,HourlyPrecipIn,Conditions,Clouds,dailyrainin,SolarRadiationWatts/m^2,SoftwareType,DateUTC
2013-07-14 00:02:00,58.4,51.9,30.11,NNE,32,0.0,3.0,79,0.00,,,0.00,0,Wunderground v.1.15,2013-07-14 07:02:00,
2013-07-14 00:07:00,58.3,52.2,30.11,NNW,347,0.0,4.0,80,0.00,,,0.00,0,Wunderground v.1.15,2013-07-14 07:07:00,
2013-07-14 00:12:00,58.3,52.2,30.11,North,9,0.0,2.0,80,0.00,,,0.00,0,Wunderground v.1.15,2013-07-14 07:12:00,
2013-07-14 00:17:00,58.3,52.5,30.11,North,355,0.0,3.0,81,0.00,,,0.00,0,Wunderground v.1.15,2013-07-14 07:17:00,
2013-07-14 00:23:00,58.1,52.0,30.11,North,355,0.0,1.0,80,0.00,,,0.00,0,Wunderground v.1.15,2013-07-14 07:23:00,
2013-07-14 00:28:00,58.0,51.9,30.11,NNW,348,1.0,1.0,80,0.00,,,0.00,0,Wunderground v.1.15,2013-07-14 07:28:00,
2013-07-14 00:33:00,57.8,51.7,30.11,SW,229,1.0,1.0,80,0.00,,,0.00,0,Wunderground v.1.15,2013-07-14 07:33:00,
2013-07-14 00:38:00,57.6,51.5,30.11,SW,229,0.0,2.0,80,0.00,,,0.00,0,Wunderground v.1.15,2013-07-14 07:38:00,
2013-07-14 00:43:00,57.3,51.5,30.11,SW,229,1.0,1.0,81,0.00,,,0.00,0,Wunderground v.1.15,2013-07-14 07:43:00,
2013-07-14 00:49:00,57.2,51.4,30.11,SW,229,0.0,1.0,81,0.00,,,0.00,0,Wunderground v.1.15,2013-07-14 07:49:00,
2013-07-14 00:54:00,57.0,51.2,30.11,SW,229,0.0,1.0,81,0.00,,,0.00,0,Wunderground v.1.15,2013-07-14 07:54:00,
2013-07-14 00:59:00,56.7,50.9,30.11,SW,229,0.0,1.0,81,0.00,,,0.00,0,Wunderground v.1.15,2013-07-14 07:59:00,
2013-07-14 01:04:00,56.6,50.8,30.11,SW,229,0.0,0.0,81,0.00,,,0.00,0,Wunderground v.1.15,2013-07-14 08:04:00,
2013-07-14 01:09:00,56.5,50.7,30.11,SW,229,0.0,1.0,81,0.00,,,0.00,0,Wunderground v.1.15,2013-07-14 08:09:00,
2013-07-14 01:15:00,56.3,50.9,30.11,SW,229,2.0,2.0,82,0.00,,,0.00,0,Wunderground v.1.15,2013-07-14 08:15:00,
2013-07-14 01:20:00,56.2,50.8,30.11,SW,229,0.0,1.0,82,0.00,,,0.00,0,Wunderground v.1.15,2013-07-14 08:20:00,
2013-07-14 01:25:00,56.2,50.8,30.11,SW,229,0.0,2.0,82,0.00,,,0.00,0,Wunderground v.1.15,2013-07-14 08:25:00,
2013-07-14 01:30:00,56.0,50.3,30.11,SW,229,2.0,2.0,81,0.00,,,0.00,0,Wunderground v.1.15,2013-07-14 08:30:00,
2013-07-14 01:35:00,56.0,50.6,30.11,SW,229,2.0,2.0,82,0.00,,,0.00,0,Wunderground v.1.15,2013-07-14 08:35:00,
2013-07-14 01:41:00,55.9,50.5,30.11,SW,229,3.0,3.0,82,0.00,,,0.00,0,Wunderground v.1.15,2013-07-14 08:41:00,
2013-07-14 01:46:00,55.9,50.5,30.11,SW,229,3.0,3.0,82,0.00,,,0.00,0,Wunderground v.1.15,2013-07-14 08:46:00,
2013-07-14 01:51:00,55.7,50.3,30.11,SW,215,1.0,2.0,82,0.00,,,0.00,0,Wunderground v.1.15,2013-07-14 08:51:00,
2013-07-14 01:56:00,55.6,50.2,30.11,SW,214,3.0,3.0,82,0.00,,,0.00,0,Wunderground v.1.15,2013-07-14 08:56:00,
2013-07-14 02:01:00,55.6,50.5,30.11,SSW,213,3.0,3.0,83,0.00,,,0.00,0,Wunderground v.1.15,2013-07-14 09:01:00,
2013-07-14 02:06:00,55.4,50.3,30.11,SSW,213,2.0,4.0,83,0.00,,,0.00,0,Wunderground v.1.15,2013-07-14 09:06:00,
2013-07-14 02:11:00,55.3,50.2,30.11,SSW,210,3.0,4.0,83,0.00,,,0.00,0,Wunderground v.1.15,2013-07-14 09:11:00,
2013-07-14 02:16:00,55.3,50.2,30.11,SSW,210,1.0,4.0,83,0.00,,,0.00,0,Wunderground v.1.15,2013-07-14 09:16:00,
2013-07-14 02:21:00,55.1,50.0,30.11,SSW,210,2.0,3.0,83,0.00,,,0.00,0,Wunderground v.1.15,2013-07-14 09:21:00,
2013-07-14 02:26:00,55.1,50.0,30.11,SSW,210,3.0,4.0,83,0.00,,,0.00,0,Wunderground v.1.15,2013-07-14 09:26:00,
2013-07-14 02:31:00,55.0,49.9,30.11,SSW,210,1.0,4.0,83,0.00,,,0.00,0,Wunderground v.1.15,2013-07-14 09:31:00,
2013-07-14 02:36:00,55.0,50.3,30.11,SSW,210,1.0,4.0,84,0.00,,,0.00,0,Wunderground v.1.15,2013-07-14 09:36:00,
2013-07-14 02:41:00,55.0,50.3,30.11,SSW,210,2.0,2.0,84,0.00,,,0.00,0,Wunderground v.1.15,2013-07-14 09:41:00,
2013-07-14 02:46:00,54.8,50.1,30.11,SSW,210,0.0,2.0,84,0.00,,,0.00,0,Wunderground v.1.15,2013-07-14 09:46:00,
2013-07-14 02:51:00,54.7,50.0,30.11,SSW,210,1.0,1.0,84,0.00,,,0.00,0,Wunderground v.1.15,2013-07-14 09:51:00,
2013-07-14 02:56:00,54.5,49.8,30.11,SSW,210,1.0,3.0,84,0.00,,,0.00,0,Wunderground v.1.15,2013-07-14 09:56:00,
2013-07-14 03:01:00,54.4,49.7,30.11,SSW,210,1.0,2.0,84,0.00,,,0.00,0,Wunderground v.1.15,2013-07-14 10:01:00,
2013-07-14 03:06:00,54.2,49.5,30.11,SSW,210,1.0,3.0,84,0.00,,,0.00,0,Wunderground v.1.15,2013-07-14 10:06:00,
2013-07-14 03:11:00,54.1,49.7,30.11,SSW,210,2.0,2.0,85,0.00,,,0.00,0,Wunderground v.1.15,2013-07-14 10:11:00,
2013-07-14 03:16:00,53.8,49.4,30.11,SSW,210,1.0,3.0,85,0.00,,,0.00,0,Wunderground v.1.15,2013-07-14 10:16:00,
2013-07-14 03:21:00,53.6,49.2,30.11,SSW,210,2.0,3.0,85,0.00,,,0.00,0,Wunderground v.1.15,2013-07-14 10:21:00,
2013-07-14 03:26:00,53.5,49.4,30.11,SSW,210,2.0,3.0,86,0.00,,,0.00,0,Wunderground v.1.15,2013-07-14 10:26:00,
2013-07-14 03:31:00,53.3,49.2,30.11,SSW,210,2.0,3.0,86,0.00,,,0.00,0,Wunderground v.1.15,2013-07-14 10:31:00,
2013-07-14 03:36:00,53.3,49.5,30.11,SSW,210,3.0,3.0,87,0.00,,,0.00,0,Wunderground v.1.15,2013-07-14 10:36:00,
2013-07-14 03:41:00,53.2,49.4,30.11,SSW,210,3.0,3.0,87,0.00,,,0.00,0,Wunderground v.1.15,2013-07-14 10:41:00,
2013-07-14 03:46:00,53.1,49.3,30.11,SSW,210,2.0,3.0,87,0.00,,,0.00,0,Wunderground v.1.15,2013-07-14 10:46:00,
2013-07-14 03:51:00,53.1,49.3,30.11,SSW,210,2.0,4.0,87,0.00,,,0.00,0,Wunderground v.1.15,2013-07-14 10:51:00,
2013-07-14 03:56:00,52.9,49.4,30.11,SSW,210,3.0,4.0,88,0.00,,,0.00,0,Wunderground v.1.15,2013-07-14 10:56:00,
2013-07-14 04:01:00,52.8,49.3,30.11,SSW,210,1.0,4.0,88,0.00,,,0.00,0,Wunderground v.1.15,2013-07-14 11:01:00,
2013-07-14 04:06:00,52.8,49.3,30.11,SSW,210,2.0,4.0,88,0.00,,,0.00,0,Wunderground v.1.15,2013-07-14 11:06:00,
2013-07-14 04:11:00,52.6,49.1,30.11,SSW,210,3.0,4.0,88,0.00,,,0.00,0,Wunderground v.1.15,2013-07-14 11:11:00,
2013-07-14 04:16:00,52.6,49.1,30.11,SSW,210,3.0,4.0,88,0.00,,,0.00,0,Wunderground v.1.15,2013-07-14 11:16:00,
2013-07-14 04:21:00,52.5,49.4,30.11,SSW,210,2.0,3.0,89,0.00,,,0.00,0,Wunderground v.1.15,2013-07-14 11:21:00,
2013-07-14 04:26:00,52.5,49.4,30.11,SSW,210,2.0,3.0,89,0.00,,,0.00,0,Wunderground v.1.15,2013-07-14 11:26:00,
2013-07-14 04:31:00,52.3,49.2,30.11,SSW,210,2.0,3.0,89,0.00,,,0.00,0,Wunderground v.1.15,2013-07-14 11:31:00,
2013-07-14 04:36:00,52.3,49.2,30.11,SSW,210,3.0,3.0,89,0.00,,,0.00,0,Wunderground v.1.15,2013-07-14 11:36:00,
2013-07-14 04:41:00,52.2,49.1,30.11,SSW,210,2.0,2.0,89,0.00,,,0.00,0,Wunderground v.1.15,2013-07-14 11:41:00,
2013-07-14 04:46:00,52.2,49.4,30.11,SSW,210,2.0,3.0,90,0.00,,,0.00,0,Wunderground v.1.15,2013-07-14 11:46:00,
2013-07-14 04:51:00,52.2,49.4,30.11,SSW,210,3.0,3.0,90,0.00,,,0.00,0,Wunderground v.1.15,2013-07-14 11:51:00,
2013-07-14 04:56:00,52.2,49.4,30.11,SSW,210,3.0,4.0,90,0.00,,,0.00,0,Wunderground v.1.15,2013-07-14 11:56:00,
2013-07-14 05:01:00,52.0,49.2,30.11,SSW,210,2.0,3.0,90,0.00,,,0.00,0,Wunderground v.1.15,2013-07-14 12:01:00,
2013-07-14 05:06:00,52.0,49.2,30.11,SSW,210,3.0,4.0,90,0.00,,,0.00,0,Wunderground v.1.15,2013-07-14 12:06:00,
2013-07-14 05:11:00,52.0,49.2,30.11,SSW,210,2.0,3.0,90,0.00,,,0.00,0,Wunderground v.1.15,2013-07-14 12:11:00,
2013-07-14 05:16:00,51.9,49.1,30.11,SSW,210,3.0,4.0,90,0.00,,,0.00,0,Wunderground v.1.15,2013-07-14 12:16:00,
2013-07-14 05:21:00,51.9,49.4,30.11,SSW,210,2.0,3.0,91,0.00,,,0.00,0,Wunderground v.1.15,2013-07-14 12:21:00,
2013-07-14 05:26:00,51.7,49.2,30.11,SSW,210,3.0,3.0,91,0.00,,,0.00,0,Wunderground v.1.15,2013-07-14 12:26:00,
2013-07-14 05:31:00,51.7,49.2,30.11,SSW,210,2.0,3.0,91,0.00,,,0.00,5,Wunderground v.1.15,2013-07-14 12:31:00,
2013-07-14 05:36:00,51.7,49.2,30.11,SSW,210,2.0,3.0,91,0.00,,,0.00,12,Wunderground v.1.15,2013-07-14 12:36:00,
2013-07-14 05:41:00,51.7,49.2,30.11,SSW,210,2.0,2.0,91,0.00,,,0.00,23,Wunderground v.1.15,2013-07-14 12:41:00,
2013-07-14 05:46:00,51.7,49.5,30.11,SSW,210,2.0,3.0,92,0.00,,,0.00,33,Wunderground v.1.15,2013-07-14 12:46:00,
2013-07-14 05:51:00,51.7,49.5,30.11,SSW,210,2.0,2.0,92,0.00,,,0.00,46,Wunderground v.1.15,2013-07-14 12:51:00,
2013-07-14 05:56:00,51.9,49.6,30.11,SSW,210,1.0,2.0,92,0.00,,,0.00,54,Wunderground v.1.15,2013-07-14 12:56:00,
2013-07-14 06:01:00,52.0,49.7,30.11,SSW,210,0.0,1.0,92,0.00,,,0.00,60,Wunderground v.1.15,2013-07-14 13:01:00,
2013-07-14 06:06:00,52.2,49.9,30.11,SSW,210,2.0,2.0,92,0.00,,,0.00,63,Wunderground v.1.15,2013-07-14 13:06:00,
2013-07-14 06:11:00,52.2,49.9,30.11,SSW,210,1.0,2.0,92,0.00,,,0.00,63,Wunderground v.1.15,2013-07-14 13:11:00,
2013-07-14 06:16:00,52.5,50.2,30.11,SSW,210,2.0,2.0,92,0.00,,,0.00,62,Wunderground v.1.15,2013-07-14 13:16:00,
2013-07-14 06:21:00,52.6,50.3,30.11,SSW,210,1.0,2.0,92,0.00,,,0.00,62,Wunderground v.1.15,2013-07-14 13:21:00,
2013-07-14 06:26:00,52.8,50.5,30.11,SSW,210,1.0,2.0,92,0.00,,,0.00,65,Wunderground v.1.15,2013-07-14 13:26:00,
2013-07-14 06:31:00,53.1,50.8,30.11,SSW,211,0.0,1.0,92,0.00,,,0.00,69,Wunderground v.1.15,2013-07-14 13:31:00,
2013-07-14 06:36:00,53.3,51.0,30.11,SSW,211,0.0,1.0,92,0.00,,,0.00,70,Wunderground v.1.15,2013-07-14 13:36:00,
2013-07-14 06:41:00,53.6,51.3,30.11,SSW,211,0.0,0.0,92,0.00,,,0.00,70,Wunderground v.1.15,2013-07-14 13:41:00,
2013-07-14 06:46:00,54.1,51.8,30.12,SSW,210,0.0,1.0,92,0.00,,,0.00,74,Wunderground v.1.15,2013-07-14 13:46:00,
2013-07-14 06:51:00,54.5,52.2,30.12,SSW,210,1.0,1.0,92,0.00,,,0.00,74,Wunderground v.1.15,2013-07-14 13:51:00,
2013-07-14 06:56:00,55.1,52.8,30.12,SSW,210,1.0,2.0,92,0.00,,,0.00,76,Wunderground v.1.15,2013-07-14 13:56:00,
2013-07-14 07:01:00,56.0,53.7,30.13,SSW,210,0.0,1.0,92,0.00,,,0.00,77,Wunderground v.1.15,2013-07-14 14:01:00,
2013-07-14 07:06:00,56.7,54.4,30.13,SSW,210,0.0,2.0,92,0.00,,,0.00,77,Wunderground v.1.15,2013-07-14 14:06:00,
2013-07-14 07:11:00,57.6,54.4,30.13,SSW,210,0.0,2.0,89,0.00,,,0.00,77,Wunderground v.1.15,2013-07-14 14:11:00,
2013-07-14 07:16:00,58.7,54.5,30.13,SSW,210,3.0,3.0,86,0.00,,,0.00,77,Wunderground v.1.15,2013-07-14 14:16:00,
2013-07-14 07:21:00,59.6,54.1,30.13,SSW,210,1.0,3.0,82,0.00,,,0.00,79,Wunderground v.1.15,2013-07-14 14:21:00,
2013-07-14 07:26:00,60.5,54.6,30.13,North,355,3.0,3.0,81,0.00,,,0.00,93,Wunderground v.1.15,2013-07-14 14:26:00,
2013-07-14 07:31:00,61.0,54.1,30.13,NNE,14,1.0,3.0,78,0.00,,,0.00,127,Wunderground v.1.15,2013-07-14 14:31:00,
2013-07-14 07:36:00,61.5,54.2,30.13,NNE,14,0.0,3.0,77,0.00,,,0.00,178,Wunderground v.1.15,2013-07-14 14:36:00,
2013-07-14 07:41:00,61.8,54.2,30.13,NNE,14,1.0,2.0,76,0.00,,,0.00,237,Wunderground v.1.15,2013-07-14 14:41:00,
2013-07-14 07:46:00,62.6,55.3,30.13,NNE,14,0.0,2.0,77,0.00,,,0.00,295,Wunderground v.1.15,2013-07-14 14:46:00,
2013-07-14 07:51:00,63.1,55.8,30.13,NNE,14,2.0,2.0,77,0.00,,,0.00,338,Wunderground v.1.15,2013-07-14 14:51:00,
2013-07-14 07:56:00,63.7,56.0,30.13,NNE,14,1.0,3.0,76,0.00,,,0.00,362,Wunderground v.1.15,2013-07-14 14:56:00,
2013-07-14 08:01:00,64.2,55.4,30.13,NNE,14,2.0,3.0,73,0.00,,,0.00,376,Wunderground v.1.15,2013-07-14 15:01:00,
2013-07-14 08:06:00,64.3,55.1,30.13,NNE,15,3.0,4.0,72,0.00,,,0.00,390,Wunderground v.1.15,2013-07-14 15:06:00,
2013-07-14 08:12:00,64.7,56.2,30.13,NE,36,2.0,2.0,74,0.00,,,0.00,403,Wunderground v.1.15,2013-07-14 15:12:00,
2013-07-14 08:17:00,64.8,55.6,30.13,NE,36,3.0,4.0,72,0.00,,,0.00,417,Wunderground v.1.15,2013-07-14 15:17:00,
2013-07-14 08:22:00,65.2,55.9,30.13,NE,38,3.0,3.0,72,0.00,,,0.00,431,Wunderground v.1.15,2013-07-14 15:22:00,
2013-07-14 08:27:00,65.3,54.9,30.13,NE,38,4.0,4.0,69,0.00,,,0.00,445,Wunderground v.1.15,2013-07-14 15:27:00,
2013-07-14 08:32:00,65.3,54.1,30.14,NE,38,2.0,4.0,67,0.00,,,0.00,459,Wunderground v.1.15,2013-07-14 15:32:00,
2013-07-14 08:37:00,65.3,54.9,30.14,NE,38,3.0,4.0,69,0.00,,,0.00,476,Wunderground v.1.15,2013-07-14 15:37:00,
2013-07-14 08:42:00,65.0,54.6,30.14,NE,38,3.0,4.0,69,0.00,,,0.00,490,Wunderground v.1.15,2013-07-14 15:42:00,
2013-07-14 08:47:00,65.2,55.9,30.14,NE,38,2.0,4.0,72,0.00,,,0.00,506,Wunderground v.1.15,2013-07-14 15:47:00,
2013-07-14 08:52:00,65.2,54.8,30.14,NE,44,2.0,3.0,69,0.00,,,0.00,520,Wunderground v.1.15,2013-07-14 15:52:00,
2013-07-14 08:57:00,65.5,55.1,30.14,NE,44,3.0,3.0,69,0.00,,,0.00,534,Wunderground v.1.15,2013-07-14 15:57:00,
2013-07-14 09:02:00,65.5,54.2,30.13,NE,44,3.0,4.0,67,0.00,,,0.00,547,Wunderground v.1.15,2013-07-14 16:02:00,
2013-07-14 09:07:00,65.3,55.3,30.13,NE,44,3.0,4.0,70,0.00,,,0.00,561,Wunderground v.1.15,2013-07-14 16:07:00,
2013-07-14 09:12:00,65.3,56.0,30.13,NE,44,2.0,3.0,72,0.00,,,0.00,573,Wunderground v.1.15,2013-07-14 16:12:00,
2013-07-14 09:17:00,65.6,56.3,30.13,NE,44,1.0,3.0,72,0.00,,,0.00,587,Wunderground v.1.15,2013-07-14 16:17:00,
2013-07-14 09:22:00,66.3,55.8,30.13,NE,44,1.0,3.0,69,0.00,,,0.00,603,Wunderground v.1.15,2013-07-14 16:22:00,
2013-07-14 09:27:00,66.9,56.4,30.13,NE,44,1.0,3.0,69,0.00,,,0.00,615,Wunderground v.1.15,2013-07-14 16:27:00,
2013-07-14 09:32:00,67.4,56.5,30.13,NE,44,2.0,3.0,68,0.00,,,0.00,629,Wunderground v.1.15,2013-07-14 16:32:00,
2013-07-14 09:37:00,67.8,56.0,30.13,NE,44,2.0,3.0,66,0.00,,,0.00,640,Wunderground v.1.15,2013-07-14 16:37:00,
2013-07-14 09:42:00,67.9,56.1,30.13,NE,44,1.0,2.0,66,0.00,,,0.00,652,Wunderground v.1.15,2013-07-14 16:42:00,
2013-07-14 09:47:00,68.3,56.5,30.12,NE,44,2.0,3.0,66,0.00,,,0.00,664,Wunderground v.1.15,2013-07-14 16:47:00,
2013-07-14 09:52:00,68.3,55.2,30.12,NE,44,1.0,2.0,63,0.00,,,0.00,675,Wunderground v.1.15,2013-07-14 16:52:00,
2013-07-14 09:57:00,68.6,55.9,30.12,NE,44,0.0,2.0,64,0.00,,,0.00,689,Wunderground v.1.15,2013-07-14 16:57:00,
2013-07-14 10:02:00,68.8,57.0,30.12,NE,44,2.0,2.0,66,0.00,,,0.00,703,Wunderground v.1.15,2013-07-14 17:02:00,
2013-07-14 10:07:00,68.8,56.6,30.12,NE,44,2.0,3.0,65,0.00,,,0.00,714,Wunderground v.1.15,2013-07-14 17:07:00,
2013-07-14 10:12:00,69.1,56.8,30.12,NE,44,1.0,3.0,65,0.00,,,0.00,722,Wunderground v.1.15,2013-07-14 17:12:00,
2013-07-14 10:17:00,69.3,57.5,30.11,NE,44,1.0,3.0,66,0.00,,,0.00,735,Wunderground v.1.15,2013-07-14 17:17:00,
2013-07-14 10:22:00,69.6,57.3,30.11,NE,44,1.0,2.0,65,0.00,,,0.00,745,Wunderground v.1.15,2013-07-14 17:22:00,
2013-07-14 10:27:00,69.9,56.7,30.11,NE,44,0.0,2.0,63,0.00,,,0.00,756,Wunderground v.1.15,2013-07-14 17:27:00,
2013-07-14 10:32:00,69.9,56.3,30.11,NE,43,2.0,2.0,62,0.00,,,0.00,766,Wunderground v.1.15,2013-07-14 17:32:00,
2013-07-14 10:37:00,69.8,56.2,30.11,NE,44,2.0,3.0,62,0.00,,,0.00,777,Wunderground v.1.15,2013-07-14 17:37:00,
2013-07-14 10:42:00,69.9,57.6,30.11,NE,44,1.0,2.0,65,0.00,,,0.00,784,Wunderground v.1.15,2013-07-14 17:42:00,
2013-07-14 10:47:00,70.1,56.9,30.11,NE,44,1.0,3.0,63,0.00,,,0.00,795,Wunderground v.1.15,2013-07-14 17:47:00,
2013-07-14 10:52:00,69.9,56.7,30.11,NE,44,2.0,3.0,63,0.00,,,0.00,803,Wunderground v.1.15,2013-07-14 17:52:00,
2013-07-14 10:57:00,69.4,56.3,30.11,NE,44,2.0,3.0,63,0.00,,,0.00,812,Wunderground v.1.15,2013-07-14 17:57:00,
2013-07-14 11:02:00,69.1,57.3,30.10,NE,44,1.0,3.0,66,0.00,,,0.00,821,Wunderground v.1.15,2013-07-14 18:02:00,
2013-07-14 11:07:00,68.8,57.0,30.10,NE,43,2.0,3.0,66,0.00,,,0.00,828,Wunderground v.1.15,2013-07-14 18:07:00,
2013-07-14 11:12:00,68.6,56.8,30.10,NE,44,1.0,3.0,66,0.00,,,0.00,837,Wunderground v.1.15,2013-07-14 18:12:00,
2013-07-14 11:17:00,68.4,56.6,30.10,NE,43,0.0,3.0,66,0.00,,,0.00,844,Wunderground v.1.15,2013-07-14 18:17:00,
2013-07-14 11:22:00,68.6,57.2,30.10,NE,44,2.0,3.0,67,0.00,,,0.00,849,Wunderground v.1.15,2013-07-14 18:22:00,
2013-07-14 11:27:00,68.4,57.0,30.10,NE,44,2.0,3.0,67,0.00,,,0.00,858,Wunderground v.1.15,2013-07-14 18:27:00,
2013-07-14 11:32:00,68.4,57.4,30.10,NE,43,3.0,3.0,68,0.00,,,0.00,865,Wunderground v.1.15,2013-07-14 18:32:00,
2013-07-14 11:37:00,68.4,57.0,30.10,NE,44,2.0,3.0,67,0.00,,,0.00,870,Wunderground v.1.15,2013-07-14 18:37:00,
2013-07-14 11:42:00,68.4,57.4,30.10,NE,44,1.0,3.0,68,0.00,,,0.00,877,Wunderground v.1.15,2013-07-14 18:42:00,
2013-07-14 11:47:00,68.4,57.0,30.09,NE,44,2.0,3.0,67,0.00,,,0.00,884,Wunderground v.1.15,2013-07-14 18:47:00,
2013-07-14 11:52:00,68.8,58.2,30.09,NE,43,1.0,2.0,69,0.00,,,0.00,891,Wunderground v.1.15,2013-07-14 18:52:00,
2013-07-14 11:57:00,69.1,57.7,30.09,NE,44,1.0,2.0,67,0.00,,,0.00,893,Wunderground v.1.15,2013-07-14 18:57:00,
2013-07-14 12:02:00,69.6,57.7,30.09,NE,44,2.0,2.0,66,0.00,,,0.00,898,Wunderground v.1.15,2013-07-14 19:02:00,
2013-07-14 12:07:00,69.6,57.3,30.09,NE,44,2.0,2.0,65,0.00,,,0.00,911,Wunderground v.1.15,2013-07-14 19:07:00,
2013-07-14 12:12:00,69.6,57.3,30.09,NE,43,1.0,3.0,65,0.00,,,0.00,911,Wunderground v.1.15,2013-07-14 19:12:00,
2013-07-14 12:17:00,69.4,57.5,30.09,NE,43,2.0,3.0,66,0.00,,,0.00,912,Wunderground v.1.15,2013-07-14 19:17:00,
2013-07-14 12:22:00,69.4,57.5,30.09,NE,43,0.0,3.0,66,0.00,,,0.00,912,Wunderground v.1.15,2013-07-14 19:22:00,
2013-07-14 12:27:00,69.4,57.1,30.09,NE,44,1.0,3.0,65,0.00,,,0.00,918,Wunderground v.1.15,2013-07-14 19:27:00,
2013-07-14 12:32:00,69.8,56.6,30.08,NE,44,0.0,1.0,63,0.00,,,0.00,918,Wunderground v.1.15,2013-07-14 19:32:00,
2013-07-14 12:37:00,69.9,57.2,30.08,NE,44,1.0,3.0,64,0.00,,,0.00,925,Wunderground v.1.15,2013-07-14 19:37:00,
2013-07-14 12:42:00,69.1,53.2,30.08,NNE,16,4.0,4.0,57,0.00,,,0.00,925,Wunderground v.1.15,2013-07-14 19:42:00,
2013-07-14 12:47:00,68.6,52.3,30.08,North,11,1.0,4.0,56,0.00,,,0.00,926,Wunderground v.1.15,2013-07-14 19:47:00,
2013-07-14 12:52:00,68.4,53.0,30.08,North,360,1.0,2.0,58,0.00,,,0.00,928,Wunderground v.1.15,2013-07-14 19:52:00,
2013-07-14 12:57:00,68.4,54.0,30.08,NNE,19,1.0,3.0,60,0.00,,,0.00,930,Wunderground v.1.15,2013-07-14 19:57:00,
2013-07-14 13:02:00,68.4,54.0,30.08,North,5,1.0,3.0,60,0.00,,,0.00,925,Wunderground v.1.15,2013-07-14 20:02:00,
2013-07-14 13:07:00,68.6,55.9,30.08,North,5,0.0,3.0,64,0.00,,,0.00,932,Wunderground v.1.15,2013-07-14 20:07:00,
2013-07-14 13:12:00,68.8,56.1,30.08,North,5,0.0,2.0,64,0.00,,,0.00,932,Wunderground v.1.15,2013-07-14 20:12:00,
2013-07-14 13:17:00,68.9,55.8,30.08,North,5,1.0,2.0,63,0.00,,,0.00,932,Wunderground v.1.15,2013-07-14 20:17:00,
2013-07-14 13:22:00,68.8,55.7,30.08,North,5,0.0,2.0,63,0.00,,,0.00,932,Wunderground v.1.15,2013-07-14 20:22:00,
2013-07-14 13:27:00,69.1,56.0,30.08,North,5,0.0,2.0,63,0.00,,,0.00,930,Wunderground v.1.15,2013-07-14 20:27:00,
2013-07-14 13:32:00,69.3,54.4,30.07,ENE,63,2.0,3.0,59,0.00,,,0.00,930,Wunderground v.1.15,2013-07-14 20:32:00,
2013-07-14 13:37:00,69.3,55.7,30.07,ENE,63,1.0,3.0,62,0.00,,,0.00,926,Wunderground v.1.15,2013-07-14 20:37:00,
2013-07-14 13:42:00,69.1,54.6,30.07,NNW,331,1.0,3.0,60,0.00,,,0.00,925,Wunderground v.1.15,2013-07-14 20:42:00,
2013-07-14 13:47:00,68.8,54.8,30.07,NE,34,0.0,3.0,61,0.00,,,0.00,918,Wunderground v.1.15,2013-07-14 20:47:00,
2013-07-14 13:52:00,68.8,54.8,30.07,NE,34,0.0,1.0,61,0.00,,,0.00,914,Wunderground v.1.15,2013-07-14 20:52:00,
2013-07-14 13:57:00,68.8,54.3,30.07,NNE,19,3.0,3.0,60,0.00,,,0.00,914,Wunderground v.1.15,2013-07-14 20:57:00,
2013-07-14 14:02:00,68.6,54.6,30.06,NNE,19,0.0,3.0,61,0.00,,,0.00,911,Wunderground v.1.15,2013-07-14 21:02:00,
2013-07-14 14:07:00,68.4,54.4,30.06,NNE,24,0.0,3.0,61,0.00,,,0.00,907,Wunderground v.1.15,2013-07-14 21:07:00,
2013-07-14 14:12:00,68.3,53.9,30.06,NNE,15,0.0,2.0,60,0.00,,,0.00,900,Wunderground v.1.15,2013-07-14 21:12:00,
2013-07-14 14:17:00,68.3,55.6,30.05,NNE,15,2.0,2.0,64,0.00,,,0.00,895,Wunderground v.1.15,2013-07-14 21:17:00,
2013-07-14 14:22:00,68.1,54.1,30.05,NNE,15,1.0,2.0,61,0.00,,,0.00,891,Wunderground v.1.15,2013-07-14 21:22:00,
2013-07-14 14:27:00,68.1,54.6,30.05,North,351,1.0,3.0,62,0.00,,,0.00,884,Wunderground v.1.15,2013-07-14 21:27:00,
2013-07-14 14:32:00,67.9,54.8,30.05,North,11,3.0,4.0,63,0.00,,,0.00,877,Wunderground v.1.15,2013-07-14 21:32:00,
2013-07-14 14:37:00,67.6,55.0,30.05,North,11,4.0,5.0,64,0.00,,,0.00,872,Wunderground v.1.15,2013-07-14 21:37:00,
2013-07-14 14:42:00,67.6,55.0,30.05,SSW,200,2.0,3.0,64,0.00,,,0.00,865,Wunderground v.1.15,2013-07-14 21:42:00,
2013-07-14 14:47:00,67.9,55.7,30.05,NE,42,2.0,3.0,65,0.00,,,0.00,858,Wunderground v.1.15,2013-07-14 21:47:00,
2013-07-14 14:52:00,68.1,55.9,30.05,NE,34,1.0,1.0,65,0.00,,,0.00,853,Wunderground v.1.15,2013-07-14 21:52:00,
2013-07-14 14:57:00,68.6,56.8,30.05,NE,34,0.0,2.0,66,0.00,,,0.00,844,Wunderground v.1.15,2013-07-14 21:57:00,
2013-07-14 15:02:00,69.1,56.0,30.04,NE,55,0.0,1.0,63,0.00,,,0.00,842,Wunderground v.1.15,2013-07-14 22:02:00,
2013-07-14 15:07:00,69.8,57.9,30.04,NE,55,1.0,2.0,66,0.00,,,0.00,833,Wunderground v.1.15,2013-07-14 22:07:00,
2013-07-14 15:12:00,70.1,57.4,30.04,ENE,62,0.0,2.0,64,0.00,,,0.00,826,Wunderground v.1.15,2013-07-14 22:12:00,
2013-07-14 15:18:00,69.9,57.2,30.03,ENE,62,2.0,3.0,64,0.00,,,0.00,817,Wunderground v.1.15,2013-07-14 22:18:00,
2013-07-14 15:23:00,69.4,56.7,30.03,NNE,33,3.0,5.0,64,0.00,,,0.00,809,Wunderground v.1.15,2013-07-14 22:23:00,
2013-07-14 15:28:00,68.9,57.1,30.03,ENE,65,0.0,6.0,66,0.00,,,0.00,803,Wunderground v.1.15,2013-07-14 22:28:00,
2013-07-14 15:33:00,68.8,57.0,30.03,East,85,0.0,2.0,66,0.00,,,0.00,791,Wunderground v.1.15,2013-07-14 22:33:00,
2013-07-14 15:38:00,68.9,57.1,30.03,East,85,2.0,2.0,66,0.00,,,0.00,779,Wunderground v.1.15,2013-07-14 22:38:00,
2013-07-14 15:43:00,68.9,55.8,30.03,NE,34,3.0,4.0,63,0.00,,,0.00,770,Wunderground v.1.15,2013-07-14 22:43:00,
2013-07-14 15:48:00,69.3,55.3,30.02,North,355,2.0,5.0,61,0.00,,,0.00,758,Wunderground v.1.15,2013-07-14 22:48:00,
2013-07-14 15:53:00,69.4,54.4,30.02,NNE,24,5.0,5.0,59,0.00,,,0.00,747,Wunderground v.1.15,2013-07-14 22:53:00,
2013-07-14 15:58:00,69.4,54.0,30.02,NNE,30,1.0,5.0,58,0.00,,,0.00,735,Wunderground v.1.15,2013-07-14 22:58:00,
2013-07-14 16:03:00,69.6,54.2,30.02,NNE,30,1.0,2.0,58,0.00,,,0.00,724,Wunderground v.1.15,2013-07-14 23:03:00,
2013-07-14 16:08:00,69.8,54.4,30.02,ENE,64,0.0,3.0,58,0.00,,,0.00,708,Wunderground v.1.15,2013-07-14 23:08:00,
2013-07-14 16:13:00,70.4,54.0,30.02,SSE,160,1.0,4.0,56,0.00,,,0.00,701,Wunderground v.1.15,2013-07-14 23:13:00,
2013-07-14 16:18:00,70.4,54.0,30.02,NE,46,1.0,4.0,56,0.00,,,0.00,35,Wunderground v.1.15,2013-07-14 23:18:00,
2013-07-14 16:23:00,70.3,54.3,30.02,South,169,0.0,4.0,57,0.00,,,0.00,33,Wunderground v.1.15,2013-07-14 23:23:00,
2013-07-14 16:28:00,70.1,54.6,30.02,South,169,0.0,4.0,58,0.00,,,0.00,33,Wunderground v.1.15,2013-07-14 23:28:00,
2013-07-14 16:33:00,69.9,54.4,30.01,South,169,0.0,1.0,58,0.00,,,0.00,33,Wunderground v.1.15,2013-07-14 23:33:00,
2013-07-14 16:38:00,69.6,54.6,30.01,South,169,0.0,2.0,59,0.00,,,0.00,32,Wunderground v.1.15,2013-07-14 23:38:00,
2013-07-14 16:43:00,69.3,55.3,30.01,SSE,156,2.0,2.0,61,0.00,,,0.00,32,Wunderground v.1.15,2013-07-14 23:43:00,
2013-07-14 16:48:00,68.8,56.1,30.01,NNE,13,1.0,4.0,64,0.00,,,0.00,32,Wunderground v.1.15,2013-07-14 23:48:00,
2013-07-14 16:53:00,68.4,57.0,30.01,NE,46,0.0,2.0,67,0.00,,,0.00,30,Wunderground v.1.15,2013-07-14 23:53:00,
2013-07-14 16:58:00,67.9,56.1,30.01,NNE,22,3.0,5.0,66,0.00,,,0.00,30,Wunderground v.1.15,2013-07-14 23:58:00,
2013-07-14 17:03:00,67.4,55.6,30.00,NNE,16,2.0,5.0,66,0.00,,,0.00,30,Wunderground v.1.15,2013-07-15 00:03:00,
2013-07-14 17:08:00,67.1,54.5,30.00,NE,44,3.0,8.0,64,0.00,,,0.00,28,Wunderground v.1.15,2013-07-15 00:08:00,
2013-07-14 17:13:00,67.1,55.8,30.00,NE,50,0.0,3.0,67,0.00,,,0.00,28,Wunderground v.1.15,2013-07-15 00:13:00,
2013-07-14 17:18:00,66.9,55.6,30.00,ENE,57,2.0,6.0,67,0.00,,,0.00,28,Wunderground v.1.15,2013-07-15 00:18:00,
2013-07-14 17:23:00,66.6,55.3,30.00,NNE,12,4.0,6.0,67,0.00,,,0.00,28,Wunderground v.1.15,2013-07-15 00:23:00,
2013-07-14 17:28:00,66.3,55.4,30.00,ENE,68,1.0,6.0,68,0.00,,,0.00,26,Wunderground v.1.15,2013-07-15 00:28:00,
2013-07-14 17:33:00,66.0,55.1,29.99,ENE,59,1.0,6.0,68,0.00,,,0.00,26,Wunderground v.1.15,2013-07-15 00:33:00,
2013-07-14 17:38:00,65.8,55.3,29.99,ENE,59,1.0,6.0,69,0.00,,,0.00,26,Wunderground v.1.15,2013-07-15 00:38:00,
2013-07-14 17:43:00,65.6,54.8,29.99,NNE,29,0.0,3.0,68,0.00,,,0.00,26,Wunderground v.1.15,2013-07-15 00:43:00,
2013-07-14 17:48:00,65.5,53.8,29.99,NNE,33,3.0,4.0,66,0.00,,,0.00,26,Wunderground v.1.15,2013-07-15 00:48:00,
2013-07-14 17:53:00,65.6,53.9,29.99,NNE,17,3.0,4.0,66,0.00,,,0.00,26,Wunderground v.1.15,2013-07-15 00:53:00,
2013-07-14 17:58:00,65.8,52.9,29.99,NNE,27,1.0,4.0,63,0.00,,,0.00,28,Wunderground v.1.15,2013-07-15 00:58:00,
2013-07-14 18:03:00,65.8,53.3,29.99,ENE,65,2.0,7.0,64,0.00,,,0.00,26,Wunderground v.1.15,2013-07-15 01:03:00,
2013-07-14 18:08:00,65.8,53.7,29.99,NE,35,0.0,7.0,65,0.00,,,0.00,25,Wunderground v.1.15,2013-07-15 01:08:00,
2013-07-14 18:13:00,65.8,53.7,29.99,NNE,30,1.0,2.0,65,0.00,,,0.00,25,Wunderground v.1.15,2013-07-15 01:13:00,
2013-07-14 18:18:00,65.8,53.3,29.99,NE,37,0.0,4.0,64,0.00,,,0.00,23,Wunderground v.1.15,2013-07-15 01:18:00,
2013-07-14 18:23:00,66.0,53.0,29.99,NNE,25,0.0,3.0,63,0.00,,,0.00,21,Wunderground v.1.15,2013-07-15 01:23:00,
2013-07-14 18:28:00,66.0,53.5,29.99,NNE,26,3.0,3.0,64,0.00,,,0.00,21,Wunderground v.1.15,2013-07-15 01:28:00,
2013-07-14 18:33:00,66.0,53.5,29.98,NNE,26,1.0,1.0,64,0.00,,,0.00,19,Wunderground v.1.15,2013-07-15 01:33:00,
2013-07-14 18:38:00,66.0,53.0,29.98,North,360,4.0,5.0,63,0.00,,,0.00,19,Wunderground v.1.15,2013-07-15 01:38:00,
2013-07-14 18:43:00,66.1,52.3,29.98,ENE,69,0.0,5.0,61,0.00,,,0.00,19,Wunderground v.1.15,2013-07-15 01:43:00,
2013-07-14 18:48:00,66.3,52.4,29.98,NE,34,2.0,5.0,61,0.00,,,0.00,19,Wunderground v.1.15,2013-07-15 01:48:00,
2013-07-14 18:53:00,66.4,53.8,29.98,NE,42,0.0,2.0,64,0.00,,,0.00,19,Wunderground v.1.15,2013-07-15 01:53:00,
2013-07-14 18:58:00,66.4,53.0,29.98,NNE,13,1.0,3.0,62,0.00,,,0.00,18,Wunderground v.1.15,2013-07-15 01:58:00,
2013-07-14 19:03:00,66.4,52.5,29.98,NNE,24,2.0,4.0,61,0.00,,,0.00,18,Wunderground v.1.15,2013-07-15 02:03:00,
2013-07-14 19:08:00,66.6,53.2,29.98,NE,40,0.0,4.0,62,0.00,,,0.00,18,Wunderground v.1.15,2013-07-15 02:08:00,
2013-07-14 19:13:00,66.6,51.4,29.98,North,355,0.0,6.0,58,0.00,,,0.00,18,Wunderground v.1.15,2013-07-15 02:13:00,
2013-07-14 19:18:00,66.8,50.1,29.98,NE,44,2.0,6.0,55,0.00,,,0.00,16,Wunderground v.1.15,2013-07-15 02:18:00,
2013-07-14 19:23:00,67.3,50.1,29.98,NNW,340,1.0,6.0,54,0.00,,,0.00,18,Wunderground v.1.15,2013-07-15 02:23:00,
2013-07-14 19:28:00,67.8,52.0,29.98,NE,53,0.0,6.0,57,0.00,,,0.00,16,Wunderground v.1.15,2013-07-15 02:28:00,
2013-07-14 19:33:00,67.9,55.3,29.98,NE,52,0.0,2.0,64,0.00,,,0.00,16,Wunderground v.1.15,2013-07-15 02:33:00,
2013-07-14 19:38:00,67.6,55.4,29.98,East,88,0.0,2.0,65,0.00,,,0.00,16,Wunderground v.1.15,2013-07-15 02:38:00,
2013-07-14 19:43:00,67.1,55.8,29.98,ENE,76,1.0,2.0,67,0.00,,,0.00,14,Wunderground v.1.15,2013-07-15 02:43:00,
2013-07-14 19:48:00,66.8,55.9,29.99,East,80,2.0,2.0,68,0.00,,,0.00,14,Wunderground v.1.15,2013-07-15 02:48:00,
2013-07-14 19:53:00,66.1,54.4,29.99,ESE,113,1.0,4.0,66,0.00,,,0.00,14,Wunderground v.1.15,2013-07-15 02:53:00,
2013-07-14 19:58:00,65.6,53.9,29.99,South,175,0.0,5.0,66,0.00,,,0.00,14,Wunderground v.1.15,2013-07-15 02:58:00,
2013-07-14 20:03:00,65.5,53.8,29.99,South,175,0.0,1.0,66,0.00,,,0.00,12,Wunderground v.1.15,2013-07-15 03:03:00,
2013-07-14 20:08:00,65.2,53.6,29.99,North,355,3.0,6.0,66,0.00,,,0.00,12,Wunderground v.1.15,2013-07-15 03:08:00,
2013-07-14 20:13:00,65.0,53.8,29.99,North,5,3.0,7.0,67,0.00,,,0.00,12,Wunderground v.1.15,2013-07-15 03:13:00,
2013-07-14 20:18:00,64.8,53.6,29.99,North,355,8.0,9.0,67,0.00,,,0.00,11,Wunderground v.1.15,2013-07-15 03:18:00,
2013-07-14 20:23:00,64.8,54.4,29.99,NE,44,3.0,7.0,69,0.00,,,0.00,11,Wunderground v.1.15,2013-07-15 03:23:00,
2013-07-14 20:28:00,64.7,54.3,29.99,North,11,1.0,8.0,69,0.00,,,0.00,9,Wunderground v.1.15,2013-07-15 03:28:00,
2013-07-14 20:33:00,64.3,53.5,29.99,NE,40,2.0,9.0,68,0.00,,,0.00,9,Wunderground v.1.15,2013-07-15 03:33:00,
2013-07-14 20:38:00,64.3,54.7,29.99,NE,53,0.0,9.0,71,0.00,,,0.00,7,Wunderground v.1.15,2013-07-15 03:38:00,
2013-07-14 20:43:00,64.0,54.0,29.99,North,355,1.0,7.0,70,0.00,,,0.00,7,Wunderground v.1.15,2013-07-15 03:43:00,
2013-07-14 20:48:00,63.9,53.5,29.98,NNE,19,2.0,8.0,69,0.00,,,0.00,5,Wunderground v.1.15,2013-07-15 03:48:00,
2013-07-14 20:53:00,63.7,52.9,29.98,NE,40,5.0,10.0,68,0.00,,,0.00,5,Wunderground v.1.15,2013-07-15 03:53:00,
2013-07-14 20:58:00,63.9,51.9,29.98,NNW,327,7.0,10.0,65,0.00,,,0.00,0,Wunderground v.1.15,2013-07-15 03:58:00,
2013-07-14 21:01:00,63.9,51.5,29.99,North,360,7.0,8.0,64,0.00,,,0.00,0,Wunderground v.1.15,2013-07-15 04:01:00,
2013-07-14 21:06:00,64.0,51.6,29.99,NE,48,4.0,11.0,64,0.00,,,0.00,0,Wunderground v.1.15,2013-07-15 04:06:00,
2013-07-14 21:11:00,63.9,52.3,29.99,NE,55,3.0,8.0,66,0.00,,,0.00,0,Wunderground v.1.15,2013-07-15 04:11:00,
2013-07-14 21:16:00,63.9,52.3,29.99,NE,47,2.0,9.0,66,0.00,,,0.00,0,Wunderground v.1.15,2013-07-15 04:16:00,
2013-07-14 21:21:00,63.5,52.3,29.99,NNW,348,5.0,11.0,67,0.00,,,0.00,0,Wunderground v.1.15,2013-07-15 04:21:00,
2013-07-14 21:26:00,63.2,52.1,29.99,North,355,8.0,11.0,67,0.00,,,0.00,0,Wunderground v.1.15,2013-07-15 04:26:00,
2013-07-14 21:31:00,63.1,52.0,29.99,North,355,5.0,10.0,67,0.00,,,0.00,0,Wunderground v.1.15,2013-07-15 04:31:00,
2013-07-14 21:36:00,62.9,52.6,29.99,North,355,7.0,10.0,69,0.00,,,0.00,0,Wunderground v.1.15,2013-07-15 04:36:00,
2013-07-14 21:41:00,62.6,52.7,29.99,NE,38,2.0,8.0,70,0.00,,,0.00,0,Wunderground v.1.15,2013-07-15 04:41:00,
2013-07-14 21:46:00,62.1,52.2,29.99,NNE,21,8.0,12.0,70,0.00,,,0.00,0,Wunderground v.1.15,2013-07-15 04:46:00,
2013-07-14 21:51:00,62.0,52.5,29.99,NE,53,10.0,10.0,71,0.00,,,0.00,0,Wunderground v.1.15,2013-07-15 04:51:00,
2013-07-14 21:57:00,61.8,52.7,29.99,North,355,7.0,7.0,72,0.00,,,0.00,0,Wunderground v.1.15,2013-07-15 04:57:00,
2013-07-14 22:03:00,61.6,52.1,30.00,North,9,6.0,11.0,71,0.00,,,0.00,0,Wunderground v.1.15,2013-07-15 05:03:00,
2013-07-14 22:08:00,61.5,52.0,30.00,NE,36,6.0,11.0,71,0.00,,,0.00,0,Wunderground v.1.15,2013-07-15 05:08:00,
2013-07-14 22:13:00,61.5,52.0,30.00,NE,45,3.0,10.0,71,0.00,,,0.00,0,Wunderground v.1.15,2013-07-15 05:13:00,
2013-07-14 22:18:00,61.5,52.4,30.00,NNE,31,6.0,10.0,72,0.00,,,0.00,0,Wunderground v.1.15,2013-07-15 05:18:00,
2013-07-14 22:23:00,61.3,52.6,30.00,NNE,32,3.0,11.0,73,0.00,,,0.00,0,Wunderground v.1.15,2013-07-15 05:23:00,
2013-07-14 22:28:00,61.2,52.8,30.00,NE,38,2.0,11.0,74,0.00,,,0.00,0,Wunderground v.1.15,2013-07-15 05:28:00,
2013-07-14 22:33:00,61.2,53.2,30.00,NNE,27,5.0,7.0,75,0.00,,,0.00,0,Wunderground v.1.15,2013-07-15 05:33:00,
2013-07-14 22:38:00,61.0,53.0,30.00,NE,35,3.0,7.0,75,0.00,,,0.00,0,Wunderground v.1.15,2013-07-15 05:38:00,
2013-07-14 22:43:00,60.9,53.3,30.00,ESE,114,5.0,9.0,76,0.00,,,0.00,0,Wunderground v.1.15,2013-07-15 05:43:00,
2013-07-14 22:48:00,60.9,53.3,30.00,NE,36,5.0,12.0,76,0.00,,,0.00,0,Wunderground v.1.15,2013-07-15 05:48:00,
2013-07-14 22:53:00,60.5,52.5,30.00,North,11,9.0,15.0,75,0.00,,,0.00,0,Wunderground v.1.15,2013-07-15 05:53:00,
2013-07-14 22:58:00,60.5,52.5,30.00,NE,41,4.0,15.0,75,0.00,,,0.00,0,Wunderground v.1.15,2013-07-15 05:58:00,
2013-07-14 23:03:00,60.5,53.3,30.00,NNE,30,5.0,11.0,77,0.00,,,0.00,0,Wunderground v.1.15,2013-07-15 06:03:00,
2013-07-14 23:08:00,60.4,53.5,30.00,North,5,4.0,11.0,78,0.00,,,0.00,0,Wunderground v.1.15,2013-07-15 06:08:00,
2013-07-14 23:13:00,60.2,53.3,30.00,NE,47,3.0,9.0,78,0.00,,,0.00,0,Wunderground v.1.15,2013-07-15 06:13:00,
2013-07-14 23:18:00,59.9,53.0,30.00,NE,51,6.0,11.0,78,0.00,,,0.00,0,Wunderground v.1.15,2013-07-15 06:18:00,
2013-07-14 23:23:00,59.8,53.6,30.00,North,355,8.0,11.0,80,0.00,,,0.00,0,Wunderground v.1.15,2013-07-15 06:23:00,
2013-07-14 23:28:00,59.6,51.7,30.00,NNE,21,6.0,13.0,75,0.00,,,0.00,0,Wunderground v.1.15,2013-07-15 06:28:00,
2013-07-14 23:33:00,59.9,52.7,30.01,North,360,7.0,10.0,77,0.00,,,0.00,0,Wunderground v.1.15,2013-07-15 06:33:00,
2013-07-14 23:38:00,59.9,53.0,30.01,NNE,24,6.0,10.0,78,0.00,,,0.00,0,Wunderground v.1.15,2013-07-15 06:38:00,
2013-07-14 23:43:00,59.8,52.6,30.01,NNE,15,5.0,12.0,77,0.00,,,0.00,0,Wunderground v.1.15,2013-07-15 06:43:00,
2013-07-14 23:48:00,59.6,51.7,30.01,NNE,32,5.0,12.0,75,0.00,,,0.00,0,Wunderground v.1.15,2013-07-15 06:48:00,
2013-07-14 23:53:00,59.6,51.3,30.01,North,360,4.0,10.0,74,0.00,,,0.00,0,Wunderground v.1.15,2013-07-15 06:53:00,
2013-07-14 23:58:00,59.8,52.9,30.01,NNE,23,4.0,11.0,78,0.00,,,0.00,0,Wunderground v.1.15,2013-07-15 06:58:00,